ノーフォーク島 の空港の天気 - METARとTAF

ノーフォーク島空港 ( YSNF / NLK ) - ノーフォーク島 ノーフォーク島
飛行場実況気象(Metar)
観測時間08/09 04:30 NFT (08/08 17:30 UTC)
風向・風速東北東 2m/s
視程10km以上
天気現象
全天を覆う雲 雲底高度 2990m
気温13℃
湿度88%
気圧1015hPa
METARYSNF 081730Z AUTO 07004KT 9999 // OVC098 13/11 Q1015 RF00.0/000.2
過去の天気等 Google飛行場航空写真 Wunderground天気予報

過去48時間のMETAR

飛行場予報(TAF)
発表時間: 8/08 22:17 NFT (8/08 11:17 UTC)
予報対象時間: 8日23時 NFT ~ 9日23時 NFT
風向・風速南 4m/s
視程10km以上
天気現象弱いしゅう雨
全天の4割程度の雲 雲底高度 760m
9日5時 NFT から
風向・風速東南東 4m/s
視程10km以上
天気現象弱いしゅう雨
全天の4割程度の雲 雲底高度 760m
9日11時 NFT ~ 9日13時 NFT に徐々に
風向・風速東 6m/s
視程10km以上
天気現象弱いしゅう雨
全天の4割程度の雲 雲底高度 760m
9日20時 NFT から
風向・風速北東 8m/s 瞬間風速 13m/s
視程10km以上
天気現象弱い霧雨
全天の8割程度の雲 雲底高度 610m
TAF YSNF 081117Z 0812/0912 17008KT 9999 -SHRA SCT025
FM081800 11007KT 9999 -SHRA SCT025
BECMG 0900/0902 08012KT 9999 -SHRA SCT025
FM090900 05015G25KT 9999 -DZ BKN020 INTER 0909/0912 4000 DZ BKN015